sensor_id;sensor_type;location;lat;lon;timestamp;temperature;humidity
53904;DHT22;39812;52.430;16.936;2023-07-13T00:00:41;19.60;77.50
53904;DHT22;39812;52.430;16.936;2023-07-13T00:03:07;19.60;77.40
53904;DHT22;39812;52.430;16.936;2023-07-13T00:05:32;19.60;77.40
53904;DHT22;39812;52.430;16.936;2023-07-13T00:07:58;19.60;77.50
53904;DHT22;39812;52.430;16.936;2023-07-13T00:10:24;19.60;77.40
53904;DHT22;39812;52.430;16.936;2023-07-13T00:12:50;19.70;77.30
53904;DHT22;39812;52.430;16.936;2023-07-13T00:15:20;19.70;76.90
53904;DHT22;39812;52.430;16.936;2023-07-13T00:17:49;19.70;77.40
53904;DHT22;39812;52.430;16.936;2023-07-13T00:20:15;19.70;77.50
53904;DHT22;39812;52.430;16.936;2023-07-13T00:22:41;19.70;77.60
53904;DHT22;39812;52.430;16.936;2023-07-13T00:25:08;19.70;77.60
53904;DHT22;39812;52.430;16.936;2023-07-13T00:27:34;19.70;77.50
53904;DHT22;39812;52.430;16.936;2023-07-13T00:29:59;19.70;78.10
53904;DHT22;39812;52.430;16.936;2023-07-13T00:32:25;19.50;78.40
53904;DHT22;39812;52.430;16.936;2023-07-13T00:34:51;19.40;79.10
53904;DHT22;39812;52.430;16.936;2023-07-13T00:37:17;19.30;79.40
53904;DHT22;39812;52.430;16.936;2023-07-13T00:39:43;19.40;79.30
53904;DHT22;39812;52.430;16.936;2023-07-13T00:42:09;19.30;79.40
53904;DHT22;39812;52.430;16.936;2023-07-13T00:44:35;19.40;79.40
53904;DHT22;39812;52.430;16.936;2023-07-13T00:47:01;19.40;79.10
53904;DHT22;39812;52.430;16.936;2023-07-13T00:49:29;19.40;79.30
53904;DHT22;39812;52.430;16.936;2023-07-13T00:52:02;19.40;79.30
53904;DHT22;39812;52.430;16.936;2023-07-13T00:54:38;19.40;79.00
53904;DHT22;39812;52.430;16.936;2023-07-13T00:57:08;19.50;79.00
53904;DHT22;39812;52.430;16.936;2023-07-13T00:59:36;19.50;79.20
53904;DHT22;39812;52.430;16.936;2023-07-13T01:02:04;19.50;79.10
53904;DHT22;39812;52.430;16.936;2023-07-13T01:04:30;19.50;78.70
53904;DHT22;39812;52.430;16.936;2023-07-13T01:06:56;19.40;79.10
53904;DHT22;39812;52.430;16.936;2023-07-13T01:09:23;19.40;79.30
53904;DHT22;39812;52.430;16.936;2023-07-13T01:11:49;19.40;79.40
53904;DHT22;39812;52.430;16.936;2023-07-13T01:14:15;19.40;79.70
53904;DHT22;39812;52.430;16.936;2023-07-13T01:16:44;19.30;79.70
53904;DHT22;39812;52.430;16.936;2023-07-13T01:19:35;19.40;79.90
53904;DHT22;39812;52.430;16.936;2023-07-13T01:22:30;19.30;79.90
53904;DHT22;39812;52.430;16.936;2023-07-13T01:24:57;19.40;79.80
53904;DHT22;39812;52.430;16.936;2023-07-13T01:27:25;19.40;79.90
53904;DHT22;39812;52.430;16.936;2023-07-13T01:29:52;19.30;79.90
53904;DHT22;39812;52.430;16.936;2023-07-13T01:32:20;19.40;80.10
53904;DHT22;39812;52.430;16.936;2023-07-13T01:34:47;19.30;80.20
53904;DHT22;39812;52.430;16.936;2023-07-13T01:37:13;19.40;80.30
53904;DHT22;39812;52.430;16.936;2023-07-13T01:39:38;19.40;80.40
53904;DHT22;39812;52.430;16.936;2023-07-13T01:42:05;19.20;80.80
53904;DHT22;39812;52.430;16.936;2023-07-13T01:44:30;19.20;81.60
53904;DHT22;39812;52.430;16.936;2023-07-13T01:46:56;19.10;81.80
53904;DHT22;39812;52.430;16.936;2023-07-13T01:49:22;19.20;82.40
53904;DHT22;39812;52.430;16.936;2023-07-13T01:51:47;19.10;82.30
53904;DHT22;39812;52.430;16.936;2023-07-13T01:54:13;19.00;82.80
53904;DHT22;39812;52.430;16.936;2023-07-13T01:56:38;19.00;83.10
53904;DHT22;39812;52.430;16.936;2023-07-13T01:59:05;19.00;83.30
53904;DHT22;39812;52.430;16.936;2023-07-13T02:01:30;19.00;83.60
53904;DHT22;39812;52.430;16.936;2023-07-13T02:03:56;19.00;84.30
53904;DHT22;39812;52.430;16.936;2023-07-13T02:06:22;19.00;85.00
53904;DHT22;39812;52.430;16.936;2023-07-13T02:08:47;18.90;86.30
53904;DHT22;39812;52.430;16.936;2023-07-13T02:11:13;18.90;86.50
53904;DHT22;39812;52.430;16.936;2023-07-13T02:13:39;18.80;87.20
53904;DHT22;39812;52.430;16.936;2023-07-13T02:16:04;18.90;87.90
53904;DHT22;39812;52.430;16.936;2023-07-13T02:18:30;18.90;88.90
53904;DHT22;39812;52.430;16.936;2023-07-13T02:20:56;18.80;89.30
53904;DHT22;39812;52.430;16.936;2023-07-13T02:23:22;18.80;90.30
53904;DHT22;39812;52.430;16.936;2023-07-13T02:25:47;18.80;91.70
53904;DHT22;39812;52.430;16.936;2023-07-13T02:28:13;18.70;91.40
53904;DHT22;39812;52.430;16.936;2023-07-13T02:30:39;18.70;92.10
53904;DHT22;39812;52.430;16.936;2023-07-13T02:33:05;18.70;92.30
53904;DHT22;39812;52.430;16.936;2023-07-13T02:35:30;18.80;92.60
53904;DHT22;39812;52.430;16.936;2023-07-13T02:37:56;18.80;93.60
53904;DHT22;39812;52.430;16.936;2023-07-13T02:40:22;18.70;93.80
53904;DHT22;39812;52.430;16.936;2023-07-13T02:42:48;18.80;94.20
53904;DHT22;39812;52.430;16.936;2023-07-13T02:45:13;18.70;94.70
53904;DHT22;39812;52.430;16.936;2023-07-13T02:47:41;18.70;95.70
53904;DHT22;39812;52.430;16.936;2023-07-13T02:50:07;18.60;96.00
53904;DHT22;39812;52.430;16.936;2023-07-13T02:52:33;18.60;96.60
53904;DHT22;39812;52.430;16.936;2023-07-13T02:54:59;18.50;97.00
53904;DHT22;39812;52.430;16.936;2023-07-13T02:57:24;18.60;97.20
53904;DHT22;39812;52.430;16.936;2023-07-13T02:59:50;18.60;97.40
53904;DHT22;39812;52.430;16.936;2023-07-13T03:02:16;18.60;97.90
53904;DHT22;39812;52.430;16.936;2023-07-13T03:04:41;18.50;98.20
53904;DHT22;39812;52.430;16.936;2023-07-13T03:07:07;18.50;98.80
53904;DHT22;39812;52.430;16.936;2023-07-13T03:09:34;18.40;99.80
53904;DHT22;39812;52.430;16.936;2023-07-13T03:12:00;18.30;99.90
53904;DHT22;39812;52.430;16.936;2023-07-13T03:14:26;18.30;99.90
53904;DHT22;39812;52.430;16.936;2023-07-13T03:16:52;18.20;99.90
53904;DHT22;39812;52.430;16.936;2023-07-13T03:19:18;18.20;99.90
53904;DHT22;39812;52.430;16.936;2023-07-13T03:21:44;18.20;99.90
53904;DHT22;39812;52.430;16.936;2023-07-13T03:24:10;18.20;99.90
53904;DHT22;39812;52.430;16.936;2023-07-13T03:26:35;18.20;99.90
53904;DHT22;39812;52.430;16.936;2023-07-13T03:29:01;18.30;99.90
53904;DHT22;39812;52.430;16.936;2023-07-13T03:31:30;18.40;99.90
53904;DHT22;39812;52.430;16.936;2023-07-13T03:33:56;18.60;99.90
53904;DHT22;39812;52.430;16.936;2023-07-13T03:36:26;18.70;99.90
53904;DHT22;39812;52.430;16.936;2023-07-13T03:38:54;18.80;99.90
53904;DHT22;39812;52.430;16.936;2023-07-13T03:41:21;19.00;99.90
53904;DHT22;39812;52.430;16.936;2023-07-13T03:43:48;19.00;99.90
53904;DHT22;39812;52.430;16.936;2023-07-13T03:46:14;19.00;99.90
53904;DHT22;39812;52.430;16.936;2023-07-13T03:48:41;19.00;99.90
53904;DHT22;39812;52.430;16.936;2023-07-13T03:51:08;19.00;99.90
53904;DHT22;39812;52.430;16.936;2023-07-13T03:53:37;18.90;99.90
53904;DHT22;39812;52.430;16.936;2023-07-13T03:56:03;18.90;99.90
53904;DHT22;39812;52.430;16.936;2023-07-13T03:58:34;18.80;99.90
53904;DHT22;39812;52.430;16.936;2023-07-13T04:01:01;18.70;99.90
53904;DHT22;39812;52.430;16.936;2023-07-13T04:03:28;18.50;99.90
53904;DHT22;39812;52.430;16.936;2023-07-13T04:05:57;18.40;99.90
53904;DHT22;39812;52.430;16.936;2023-07-13T04:08:28;18.40;99.90
53904;DHT22;39812;52.430;16.936;2023-07-13T04:10:54;18.40;99.90
53904;DHT22;39812;52.430;16.936;2023-07-13T04:13:20;18.40;99.90
53904;DHT22;39812;52.430;16.936;2023-07-13T04:15:46;18.50;99.90
53904;DHT22;39812;52.430;16.936;2023-07-13T04:18:11;18.60;99.90
53904;DHT22;39812;52.430;16.936;2023-07-13T04:20:37;18.80;99.90
53904;DHT22;39812;52.430;16.936;2023-07-13T04:23:02;18.90;99.90
53904;DHT22;39812;52.430;16.936;2023-07-13T04:25:28;19.00;99.90
53904;DHT22;39812;52.430;16.936;2023-07-13T04:27:54;19.20;99.90
53904;DHT22;39812;52.430;16.936;2023-07-13T04:30:20;19.30;99.90
53904;DHT22;39812;52.430;16.936;2023-07-13T04:32:46;19.30;99.90
53904;DHT22;39812;52.430;16.936;2023-07-13T04:35:12;19.20;99.90
53904;DHT22;39812;52.430;16.936;2023-07-13T04:37:39;19.30;99.90
53904;DHT22;39812;52.430;16.936;2023-07-13T04:40:06;19.50;99.90
53904;DHT22;39812;52.430;16.936;2023-07-13T04:42:31;19.70;99.90
53904;DHT22;39812;52.430;16.936;2023-07-13T04:44:57;19.90;99.90
53904;DHT22;39812;52.430;16.936;2023-07-13T04:47:23;20.00;99.90
53904;DHT22;39812;52.430;16.936;2023-07-13T04:49:49;20.10;99.90
53904;DHT22;39812;52.430;16.936;2023-07-13T04:52:14;20.10;99.90
53904;DHT22;39812;52.430;16.936;2023-07-13T04:54:40;20.10;99.90
53904;DHT22;39812;52.430;16.936;2023-07-13T04:57:06;20.00;99.90
53904;DHT22;39812;52.430;16.936;2023-07-13T04:59:35;20.10;99.90
53904;DHT22;39812;52.430;16.936;2023-07-13T05:02:00;20.10;99.90
53904;DHT22;39812;52.430;16.936;2023-07-13T05:04:27;20.10;99.90
53904;DHT22;39812;52.430;16.936;2023-07-13T05:06:52;20.10;99.90
53904;DHT22;39812;52.430;16.936;2023-07-13T05:09:18;20.10;99.90
53904;DHT22;39812;52.430;16.936;2023-07-13T05:11:44;20.20;99.90
53904;DHT22;39812;52.430;16.936;2023-07-13T05:14:10;20.10;99.90
53904;DHT22;39812;52.430;16.936;2023-07-13T05:16:36;20.00;99.90
53904;DHT22;39812;52.430;16.936;2023-07-13T05:19:02;20.10;99.90
53904;DHT22;39812;52.430;16.936;2023-07-13T05:21:28;20.10;99.90
53904;DHT22;39812;52.430;16.936;2023-07-13T05:23:54;20.30;99.90
53904;DHT22;39812;52.430;16.936;2023-07-13T05:26:20;20.50;99.90
53904;DHT22;39812;52.430;16.936;2023-07-13T05:28:46;20.50;99.90
53904;DHT22;39812;52.430;16.936;2023-07-13T05:31:12;20.50;99.90
53904;DHT22;39812;52.430;16.936;2023-07-13T05:33:38;20.40;99.90
53904;DHT22;39812;52.430;16.936;2023-07-13T05:36:03;20.30;99.90
53904;DHT22;39812;52.430;16.936;2023-07-13T05:38:29;20.00;99.90
53904;DHT22;39812;52.430;16.936;2023-07-13T05:40:55;19.90;99.90
53904;DHT22;39812;52.430;16.936;2023-07-13T05:43:22;19.80;99.90
53904;DHT22;39812;52.430;16.936;2023-07-13T05:45:48;19.70;99.90
53904;DHT22;39812;52.430;16.936;2023-07-13T05:48:14;19.70;99.90
53904;DHT22;39812;52.430;16.936;2023-07-13T05:50:40;19.70;99.90
53904;DHT22;39812;52.430;16.936;2023-07-13T05:53:06;19.70;99.90
53904;DHT22;39812;52.430;16.936;2023-07-13T05:55:32;19.80;99.90
53904;DHT22;39812;52.430;16.936;2023-07-13T05:57:58;19.90;99.90
53904;DHT22;39812;52.430;16.936;2023-07-13T06:00:24;19.90;99.90
53904;DHT22;39812;52.430;16.936;2023-07-13T06:02:50;19.80;99.90
53904;DHT22;39812;52.430;16.936;2023-07-13T06:05:16;19.90;99.90
53904;DHT22;39812;52.430;16.936;2023-07-13T06:07:42;20.00;99.90
53904;DHT22;39812;52.430;16.936;2023-07-13T06:10:08;20.00;99.90
53904;DHT22;39812;52.430;16.936;2023-07-13T06:12:33;20.00;99.90
53904;DHT22;39812;52.430;16.936;2023-07-13T06:14:59;20.10;99.90
53904;DHT22;39812;52.430;16.936;2023-07-13T06:17:24;20.10;99.90
53904;DHT22;39812;52.430;16.936;2023-07-13T06:19:50;20.20;99.90
53904;DHT22;39812;52.430;16.936;2023-07-13T06:22:16;20.20;99.90
53904;DHT22;39812;52.430;16.936;2023-07-13T06:24:41;20.10;99.90
53904;DHT22;39812;52.430;16.936;2023-07-13T06:27:07;20.10;99.90
53904;DHT22;39812;52.430;16.936;2023-07-13T06:29:33;20.10;99.90
53904;DHT22;39812;52.430;16.936;2023-07-13T06:31:58;20.20;99.90
53904;DHT22;39812;52.430;16.936;2023-07-13T06:34:24;20.40;99.90
53904;DHT22;39812;52.430;16.936;2023-07-13T06:36:50;20.70;99.90
53904;DHT22;39812;52.430;16.936;2023-07-13T06:39:15;20.90;99.90
53904;DHT22;39812;52.430;16.936;2023-07-13T06:41:41;21.10;99.90
53904;DHT22;39812;52.430;16.936;2023-07-13T06:44:07;21.30;98.90
53904;DHT22;39812;52.430;16.936;2023-07-13T06:46:32;21.40;98.60
53904;DHT22;39812;52.430;16.936;2023-07-13T06:48:58;21.70;98.50
53904;DHT22;39812;52.430;16.936;2023-07-13T06:51:24;21.90;97.80
53904;DHT22;39812;52.430;16.936;2023-07-13T06:53:51;22.00;97.20
53904;DHT22;39812;52.430;16.936;2023-07-13T06:56:17;22.30;96.90
53904;DHT22;39812;52.430;16.936;2023-07-13T06:58:42;22.50;95.60
53904;DHT22;39812;52.430;16.936;2023-07-13T07:01:08;22.60;96.30
53904;DHT22;39812;52.430;16.936;2023-07-13T07:03:34;22.60;96.60
53904;DHT22;39812;52.430;16.936;2023-07-13T07:06:22;22.60;96.70
53904;DHT22;39812;52.430;16.936;2023-07-13T07:08:50;22.60;96.60
53904;DHT22;39812;52.430;16.936;2023-07-13T07:11:21;22.60;96.70
53904;DHT22;39812;52.430;16.936;2023-07-13T07:13:51;22.60;96.50
53904;DHT22;39812;52.430;16.936;2023-07-13T07:16:18;22.90;96.20
53904;DHT22;39812;52.430;16.936;2023-07-13T07:18:44;23.00;95.90
53904;DHT22;39812;52.430;16.936;2023-07-13T07:21:10;23.10;95.80
53904;DHT22;39812;52.430;16.936;2023-07-13T07:23:36;23.00;95.60
53904;DHT22;39812;52.430;16.936;2023-07-13T07:26:01;23.10;95.60
53904;DHT22;39812;52.430;16.936;2023-07-13T07:28:27;23.30;94.30
53904;DHT22;39812;52.430;16.936;2023-07-13T07:30:57;23.40;93.50
53904;DHT22;39812;52.430;16.936;2023-07-13T07:33:24;23.40;92.70
53904;DHT22;39812;52.430;16.936;2023-07-13T07:35:50;23.50;92.80
53904;DHT22;39812;52.430;16.936;2023-07-13T07:38:16;23.70;92.40
53904;DHT22;39812;52.430;16.936;2023-07-13T07:40:42;23.90;92.00
53904;DHT22;39812;52.430;16.936;2023-07-13T07:43:09;23.90;92.20
53904;DHT22;39812;52.430;16.936;2023-07-13T07:45:35;23.90;92.30
53904;DHT22;39812;52.430;16.936;2023-07-13T07:48:03;23.90;92.00
53904;DHT22;39812;52.430;16.936;2023-07-13T07:50:29;23.90;92.00
53904;DHT22;39812;52.430;16.936;2023-07-13T07:52:55;24.00;90.20
53904;DHT22;39812;52.430;16.936;2023-07-13T07:55:24;24.10;90.30
53904;DHT22;39812;52.430;16.936;2023-07-13T07:57:52;24.30;89.40
53904;DHT22;39812;52.430;16.936;2023-07-13T08:00:18;24.40;88.80
53904;DHT22;39812;52.430;16.936;2023-07-13T08:02:44;24.50;88.90
53904;DHT22;39812;52.430;16.936;2023-07-13T08:05:11;24.50;87.70
53904;DHT22;39812;52.430;16.936;2023-07-13T08:07:37;24.60;86.20
53904;DHT22;39812;52.430;16.936;2023-07-13T08:10:04;24.60;86.70
53904;DHT22;39812;52.430;16.936;2023-07-13T08:12:30;24.70;86.50
53904;DHT22;39812;52.430;16.936;2023-07-13T08:14:58;24.80;85.40
53904;DHT22;39812;52.430;16.936;2023-07-13T08:17:26;24.80;85.00
53904;DHT22;39812;52.430;16.936;2023-07-13T08:19:52;24.80;84.80
53904;DHT22;39812;52.430;16.936;2023-07-13T08:22:17;24.90;83.20
53904;DHT22;39812;52.430;16.936;2023-07-13T08:24:43;24.90;82.20
53904;DHT22;39812;52.430;16.936;2023-07-13T08:27:10;25.10;83.50
53904;DHT22;39812;52.430;16.936;2023-07-13T08:29:37;25.40;82.60
53904;DHT22;39812;52.430;16.936;2023-07-13T08:32:04;25.60;83.00
53904;DHT22;39812;52.430;16.936;2023-07-13T08:34:30;25.60;81.40
53904;DHT22;39812;52.430;16.936;2023-07-13T08:36:55;25.90;82.10
53904;DHT22;39812;52.430;16.936;2023-07-13T08:39:21;26.40;80.50
53904;DHT22;39812;52.430;16.936;2023-07-13T08:41:52;26.70;79.50
53904;DHT22;39812;52.430;16.936;2023-07-13T08:44:25;26.90;79.20
53904;DHT22;39812;52.430;16.936;2023-07-13T08:46:55;26.80;79.30
53904;DHT22;39812;52.430;16.936;2023-07-13T08:49:22;26.70;79.50
53904;DHT22;39812;52.430;16.936;2023-07-13T08:52:02;26.60;79.20
53904;DHT22;39812;52.430;16.936;2023-07-13T08:54:38;26.50;79.20
53904;DHT22;39812;52.430;16.936;2023-07-13T08:57:17;26.40;79.60
53904;DHT22;39812;52.430;16.936;2023-07-13T08:59:44;26.00;80.00
53904;DHT22;39812;52.430;16.936;2023-07-13T09:02:26;25.80;80.50
53904;DHT22;39812;52.430;16.936;2023-07-13T09:05:02;25.90;80.60
53904;DHT22;39812;52.430;16.936;2023-07-13T09:10:28;26.30;79.70
53904;DHT22;39812;52.430;16.936;2023-07-13T09:13:05;26.50;78.60
53904;DHT22;39812;52.430;16.936;2023-07-13T09:15:43;26.30;79.00
53904;DHT22;39812;52.430;16.936;2023-07-13T09:18:19;26.60;78.60
53904;DHT22;39812;52.430;16.936;2023-07-13T09:21:11;26.90;77.60
53904;DHT22;39812;52.430;16.936;2023-07-13T09:23:38;27.40;77.30
53904;DHT22;39812;52.430;16.936;2023-07-13T09:26:11;27.30;76.50
53904;DHT22;39812;52.430;16.936;2023-07-13T09:29:09;27.00;76.90
53904;DHT22;39812;52.430;16.936;2023-07-13T09:31:43;27.00;76.90
53904;DHT22;39812;52.430;16.936;2023-07-13T09:34:11;27.10;76.20
53904;DHT22;39812;52.430;16.936;2023-07-13T09:36:37;27.10;75.90
53904;DHT22;39812;52.430;16.936;2023-07-13T09:41:57;27.50;75.00
53904;DHT22;39812;52.430;16.936;2023-07-13T09:44:31;27.60;74.20
53904;DHT22;39812;52.430;16.936;2023-07-13T09:46:59;27.40;74.40
53904;DHT22;39812;52.430;16.936;2023-07-13T09:49:26;27.20;74.70
53904;DHT22;39812;52.430;16.936;2023-07-13T09:51:59;27.10;75.20
53904;DHT22;39812;52.430;16.936;2023-07-13T09:54:26;27.10;75.00
53904;DHT22;39812;52.430;16.936;2023-07-13T09:56:58;27.10;75.70
53904;DHT22;39812;52.430;16.936;2023-07-13T09:59:30;26.80;76.70
53904;DHT22;39812;52.430;16.936;2023-07-13T10:01:56;26.90;76.90
53904;DHT22;39812;52.430;16.936;2023-07-13T10:04:29;26.70;76.70
53904;DHT22;39812;52.430;16.936;2023-07-13T10:07:05;26.70;76.00
53904;DHT22;39812;52.430;16.936;2023-07-13T10:09:32;26.70;76.10
53904;DHT22;39812;52.430;16.936;2023-07-13T10:11:58;26.90;75.70
53904;DHT22;39812;52.430;16.936;2023-07-13T10:14:23;27.40;75.40
53904;DHT22;39812;52.430;16.936;2023-07-13T10:16:56;27.80;74.70
53904;DHT22;39812;52.430;16.936;2023-07-13T10:19:31;28.30;73.80
53904;DHT22;39812;52.430;16.936;2023-07-13T10:22:11;28.70;73.10
53904;DHT22;39812;52.430;16.936;2023-07-13T10:24:39;28.80;72.30
53904;DHT22;39812;52.430;16.936;2023-07-13T10:27:19;28.40;72.40
53904;DHT22;39812;52.430;16.936;2023-07-13T10:32:22;28.30;73.40
53904;DHT22;39812;52.430;16.936;2023-07-13T10:34:49;28.60;72.90
53904;DHT22;39812;52.430;16.936;2023-07-13T10:37:22;27.90;71.10
53904;DHT22;39812;52.430;16.936;2023-07-13T10:39:50;27.80;72.00
53904;DHT22;39812;52.430;16.936;2023-07-13T10:42:30;28.00;71.70
53904;DHT22;39812;52.430;16.936;2023-07-13T10:44:57;28.90;70.80
53904;DHT22;39812;52.430;16.936;2023-07-13T10:47:24;29.10;69.80
53904;DHT22;39812;52.430;16.936;2023-07-13T10:49:53;29.40;68.90
53904;DHT22;39812;52.430;16.936;2023-07-13T10:52:47;29.00;68.70
53904;DHT22;39812;52.430;16.936;2023-07-13T10:55:33;29.30;68.30
53904;DHT22;39812;52.430;16.936;2023-07-13T10:58:13;28.90;68.10
53904;DHT22;39812;52.430;16.936;2023-07-13T11:03:22;28.80;68.00
53904;DHT22;39812;52.430;16.936;2023-07-13T11:06:11;28.90;68.10
53904;DHT22;39812;52.430;16.936;2023-07-13T11:14:00;28.30;68.50
53904;DHT22;39812;52.430;16.936;2023-07-13T11:16:42;27.80;69.50
53904;DHT22;39812;52.430;16.936;2023-07-13T11:19:25;27.40;70.40
53904;DHT22;39812;52.430;16.936;2023-07-13T11:25:01;28.10;69.70
53904;DHT22;39812;52.430;16.936;2023-07-13T11:27:42;28.50;69.70
53904;DHT22;39812;52.430;16.936;2023-07-13T11:32:44;28.70;68.80
53904;DHT22;39812;52.430;16.936;2023-07-13T11:35:17;28.80;67.90
53904;DHT22;39812;52.430;16.936;2023-07-13T11:37:45;29.10;67.20
53904;DHT22;39812;52.430;16.936;2023-07-13T11:40:14;28.90;66.20
53904;DHT22;39812;52.430;16.936;2023-07-13T11:42:40;28.80;66.40
53904;DHT22;39812;52.430;16.936;2023-07-13T11:45:19;28.80;64.10
53904;DHT22;39812;52.430;16.936;2023-07-13T11:47:48;28.40;66.90
53904;DHT22;39812;52.430;16.936;2023-07-13T11:50:20;28.60;67.20
53904;DHT22;39812;52.430;16.936;2023-07-13T11:52:46;29.30;66.80
53904;DHT22;39812;52.430;16.936;2023-07-13T11:55:17;29.60;65.50
53904;DHT22;39812;52.430;16.936;2023-07-13T11:58:02;29.80;65.00
53904;DHT22;39812;52.430;16.936;2023-07-13T12:00:31;29.50;65.00
53904;DHT22;39812;52.430;16.936;2023-07-13T12:03:00;29.40;63.30
53904;DHT22;39812;52.430;16.936;2023-07-13T12:05:27;30.30;63.10
53904;DHT22;39812;52.430;16.936;2023-07-13T12:07:53;30.40;58.90
53904;DHT22;39812;52.430;16.936;2023-07-13T12:10:24;32.90;56.50
53904;DHT22;39812;52.430;16.936;2023-07-13T12:15:26;35.70;50.20
53904;DHT22;39812;52.430;16.936;2023-07-13T12:17:54;35.70;48.70
53904;DHT22;39812;52.430;16.936;2023-07-13T12:20:29;34.20;49.30
53904;DHT22;39812;52.430;16.936;2023-07-13T12:22:58;32.50;51.60
53904;DHT22;39812;52.430;16.936;2023-07-13T12:25:25;30.60;50.60
53904;DHT22;39812;52.430;16.936;2023-07-13T12:27:51;31.90;49.20
53904;DHT22;39812;52.430;16.936;2023-07-13T12:30:28;32.00;48.30
53904;DHT22;39812;52.430;16.936;2023-07-13T12:33:00;33.10;47.30
53904;DHT22;39812;52.430;16.936;2023-07-13T12:35:29;34.30;46.30
53904;DHT22;39812;52.430;16.936;2023-07-13T12:37:57;35.50;46.30
53904;DHT22;39812;52.430;16.936;2023-07-13T12:40:31;37.90;45.10
53904;DHT22;39812;52.430;16.936;2023-07-13T12:42:58;40.00;43.40
53904;DHT22;39812;52.430;16.936;2023-07-13T12:45:26;40.70;40.90
53904;DHT22;39812;52.430;16.936;2023-07-13T12:48:05;38.10;40.80
53904;DHT22;39812;52.430;16.936;2023-07-13T12:50:40;36.10;42.40
53904;DHT22;39812;52.430;16.936;2023-07-13T12:53:13;32.40;46.20
53904;DHT22;39812;52.430;16.936;2023-07-13T12:55:44;30.60;48.10
53904;DHT22;39812;52.430;16.936;2023-07-13T13:00:57;29.50;50.90
53904;DHT22;39812;52.430;16.936;2023-07-13T13:03:35;29.10;50.30
53904;DHT22;39812;52.430;16.936;2023-07-13T13:06:04;29.10;50.60
53904;DHT22;39812;52.430;16.936;2023-07-13T13:08:34;32.50;47.90
53904;DHT22;39812;52.430;16.936;2023-07-13T13:11:03;33.80;45.80
53904;DHT22;39812;52.430;16.936;2023-07-13T13:13:30;34.40;46.20
53904;DHT22;39812;52.430;16.936;2023-07-13T13:15:55;37.10;43.90
53904;DHT22;39812;52.430;16.936;2023-07-13T13:18:23;37.80;42.00
53904;DHT22;39812;52.430;16.936;2023-07-13T13:20:50;36.50;40.60
53904;DHT22;39812;52.430;16.936;2023-07-13T13:23:17;35.90;40.70
53904;DHT22;39812;52.430;16.936;2023-07-13T13:25:49;38.00;40.10
53904;DHT22;39812;52.430;16.936;2023-07-13T13:28:18;39.20;39.30
53904;DHT22;39812;52.430;16.936;2023-07-13T13:30:46;38.40;38.30
53904;DHT22;39812;52.430;16.936;2023-07-13T13:33:15;36.50;39.30
53904;DHT22;39812;52.430;16.936;2023-07-13T13:35:41;35.60;39.90
53904;DHT22;39812;52.430;16.936;2023-07-13T13:38:13;33.60;42.00
53904;DHT22;39812;52.430;16.936;2023-07-13T13:40:43;32.60;44.00
53904;DHT22;39812;52.430;16.936;2023-07-13T13:43:22;35.60;42.50
53904;DHT22;39812;52.430;16.936;2023-07-13T13:45:52;37.50;40.80
53904;DHT22;39812;52.430;16.936;2023-07-13T13:48:21;40.70;39.00
53904;DHT22;39812;52.430;16.936;2023-07-13T13:50:55;41.20;37.40
53904;DHT22;39812;52.430;16.936;2023-07-13T13:53:21;39.80;38.00
53904;DHT22;39812;52.430;16.936;2023-07-13T13:55:49;38.40;38.50
53904;DHT22;39812;52.430;16.936;2023-07-13T13:58:15;38.00;39.50
53904;DHT22;39812;52.430;16.936;2023-07-13T14:00:40;37.90;39.20
53904;DHT22;39812;52.430;16.936;2023-07-13T14:03:17;40.10;38.90
53904;DHT22;39812;52.430;16.936;2023-07-13T14:05:44;41.00;38.10
53904;DHT22;39812;52.430;16.936;2023-07-13T14:08:17;41.40;36.90
53904;DHT22;39812;52.430;16.936;2023-07-13T14:10:45;40.40;37.20
53904;DHT22;39812;52.430;16.936;2023-07-13T14:13:28;40.10;38.10
53904;DHT22;39812;52.430;16.936;2023-07-13T14:15:55;40.50;37.60
53904;DHT22;39812;52.430;16.936;2023-07-13T14:18:21;40.20;38.30
53904;DHT22;39812;52.430;16.936;2023-07-13T14:20:49;40.10;37.60
53904;DHT22;39812;52.430;16.936;2023-07-13T14:23:17;38.40;38.80
53904;DHT22;39812;52.430;16.936;2023-07-13T14:25:44;37.20;39.80
53904;DHT22;39812;52.430;16.936;2023-07-13T14:28:26;37.00;40.00
53904;DHT22;39812;52.430;16.936;2023-07-13T14:30:53;37.50;39.30
53904;DHT22;39812;52.430;16.936;2023-07-13T14:33:20;37.80;39.20
53904;DHT22;39812;52.430;16.936;2023-07-13T14:35:46;37.60;38.40
53904;DHT22;39812;52.430;16.936;2023-07-13T14:38:15;38.40;38.90
53904;DHT22;39812;52.430;16.936;2023-07-13T14:40:42;37.00;40.40
53904;DHT22;39812;52.430;16.936;2023-07-13T14:43:13;38.00;39.80
53904;DHT22;39812;52.430;16.936;2023-07-13T14:45:49;38.70;38.50
53904;DHT22;39812;52.430;16.936;2023-07-13T14:48:21;37.60;38.60
53904;DHT22;39812;52.430;16.936;2023-07-13T14:50:53;37.10;39.50
53904;DHT22;39812;52.430;16.936;2023-07-13T14:53:19;39.10;38.70
53904;DHT22;39812;52.430;16.936;2023-07-13T14:55:45;39.40;38.00
53904;DHT22;39812;52.430;16.936;2023-07-13T14:58:10;40.40;38.40
53904;DHT22;39812;52.430;16.936;2023-07-13T15:00:36;38.20;38.50
53904;DHT22;39812;52.430;16.936;2023-07-13T15:03:03;40.40;37.80
53904;DHT22;39812;52.430;16.936;2023-07-13T15:05:33;40.50;37.60
53904;DHT22;39812;52.430;16.936;2023-07-13T15:08:01;41.00;36.60
53904;DHT22;39812;52.430;16.936;2023-07-13T15:10:32;40.70;36.70
53904;DHT22;39812;52.430;16.936;2023-07-13T15:13:15;40.00;36.60
53904;DHT22;39812;52.430;16.936;2023-07-13T15:15:44;41.40;36.30
53904;DHT22;39812;52.430;16.936;2023-07-13T15:18:12;41.60;35.60
53904;DHT22;39812;52.430;16.936;2023-07-13T15:20:38;40.90;35.70
53904;DHT22;39812;52.430;16.936;2023-07-13T15:23:04;39.90;36.10
53904;DHT22;39812;52.430;16.936;2023-07-13T15:25:32;39.10;36.40
53904;DHT22;39812;52.430;16.936;2023-07-13T15:27:59;38.10;37.90
53904;DHT22;39812;52.430;16.936;2023-07-13T15:30:28;39.00;37.90
53904;DHT22;39812;52.430;16.936;2023-07-13T15:32:56;38.10;37.10
53904;DHT22;39812;52.430;16.936;2023-07-13T15:35:25;37.90;38.00
53904;DHT22;39812;52.430;16.936;2023-07-13T15:37:52;37.70;37.70
53904;DHT22;39812;52.430;16.936;2023-07-13T15:40:18;39.60;37.70
53904;DHT22;39812;52.430;16.936;2023-07-13T15:42:45;41.30;36.20
53904;DHT22;39812;52.430;16.936;2023-07-13T15:47:41;40.70;36.10
53904;DHT22;39812;52.430;16.936;2023-07-13T15:50:13;39.20;37.10
53904;DHT22;39812;52.430;16.936;2023-07-13T15:52:39;40.30;37.20